Time;durP1;ratioP1;P1;durP2;ratioP2;P2;SDS_P1;SDS_P2;PMS_P1;PMS_P2;Temp;Humidity;BMP_temperature;BMP_pressure;BME280_temperature;BME280_humidity;BME280_pressure;Samples;Min_cycle;Max_cycle;Signal;HPM_P1;HPM_P2
2022/06/11 00:01:48;;;;;;;4.95;3.65;;;;;;;12.67;100.00;97282.47;5014783;28;20042;-64
2022/06/11 00:04:17;;;;;;;16.15;3.60;;;;;;;12.61;100.00;97278.47;4981023;28;20054;-64
2022/06/11 00:06:50;;;;;;;8.65;3.70;;;;;;;12.65;100.00;97279.31;4982443;28;20042;-65
2022/06/11 00:09:17;;;;;;;5.00;3.50;;;;;;;12.65;100.00;97278.53;4980385;28;20126;-66
2022/06/11 00:11:43;;;;;;;5.30;3.45;;;;;;;12.57;100.00;97278.41;4990917;28;20046;-63
2022/06/11 00:14:09;;;;;;;8.13;3.20;;;;;;;12.59;100.00;97278.81;4979000;28;20447;-65
2022/06/11 00:16:35;;;;;;;6.63;3.30;;;;;;;12.51;100.00;97273.56;4982030;28;20100;-65
2022/06/11 00:19:03;;;;;;;8.95;3.28;;;;;;;12.07;100.00;97273.94;4983280;28;20125;-65
2022/06/11 00:21:32;;;;;;;6.68;3.53;;;;;;;11.52;100.00;97282.16;4980036;28;20046;-65
2022/06/11 00:23:58;;;;;;;11.95;4.15;;;;;;;11.48;100.00;97282.88;4982365;28;20047;-65
2022/06/11 00:26:24;;;;;;;10.20;3.78;;;;;;;11.60;100.00;97281.19;4976049;28;20413;-65
2022/06/11 00:28:50;;;;;;;7.05;4.13;;;;;;;11.54;100.00;97277.91;4981525;28;20404;-65
2022/06/11 00:31:17;;;;;;;6.88;3.60;;;;;;;11.72;100.00;97275.56;4979762;28;20038;-65
2022/06/11 00:33:43;;;;;;;7.20;3.70;;;;;;;11.86;100.00;97269.56;4984361;28;20038;-65
2022/06/11 00:36:09;;;;;;;9.88;4.05;;;;;;;11.94;100.00;97281.50;4976761;28;20133;-66
2022/06/11 00:38:36;;;;;;;8.43;3.38;;;;;;;12.02;100.00;97281.28;4980434;28;20510;-65
2022/06/11 00:41:04;;;;;;;5.13;3.58;;;;;;;12.03;100.00;97280.13;4987827;28;20046;-67
2022/06/11 00:43:30;;;;;;;11.55;3.67;;;;;;;11.96;100.00;97270.97;4995983;28;20048;-64
2022/06/11 00:46:08;;;;;;;5.20;3.15;;;;;;;11.84;100.00;97278.16;4992217;28;20042;-63
2022/06/11 00:48:38;;;;;;;8.77;3.28;;;;;;;11.82;100.00;97272.22;4984822;28;20039;-63
2022/06/11 00:51:12;;;;;;;9.30;3.92;;;;;;;11.71;100.00;97271.22;4981971;28;20050;-66
2022/06/11 00:53:50;;;;;;;6.75;3.20;;;;;;;11.57;100.00;97268.97;4984312;28;20049;-65
2022/06/11 00:56:22;;;;;;;7.32;3.28;;;;;;;11.34;100.00;97273.53;4979738;28;20069;-62
2022/06/11 00:58:51;;;;;;;8.52;3.40;;;;;;;11.24;100.00;97274.91;4986242;28;20395;-65
2022/06/11 01:01:20;;;;;;;5.18;3.72;;;;;;;11.39;100.00;97263.06;4981489;28;20038;-64
2022/06/11 01:03:46;;;;;;;7.35;3.53;;;;;;;11.37;100.00;97272.81;4987737;28;20129;-65
2022/06/11 01:06:18;;;;;;;9.25;4.10;;;;;;;11.42;100.00;97265.13;4981558;28;20050;-65
2022/06/11 01:08:55;;;;;;;4.65;3.47;;;;;;;11.53;100.00;97265.34;4987616;28;20463;-66
2022/06/11 01:11:58;;;;;;;9.40;3.50;;;;;;;11.59;100.00;97268.59;4980087;28;20495;-65
2022/06/11 01:14:26;;;;;;;8.55;3.72;;;;;;;11.57;100.00;97266.22;4985929;28;20988;-66
2022/06/11 01:17:07;;;;;;;7.05;3.63;;;;;;;11.42;100.00;97267.06;4995144;28;20137;-66
2022/06/11 01:19:44;;;;;;;8.13;3.67;;;;;;;11.37;100.00;97270.09;4993039;28;20038;-67
2022/06/11 01:22:10;;;;;;;5.20;3.25;;;;;;;11.40;100.00;97261.94;4984477;28;20143;-66
2022/06/11 01:25:23;;;;;;;7.88;3.45;;;;;;;11.40;100.00;97259.19;4990875;28;20053;-65
2022/06/11 01:28:26;;;;;;;5.07;3.60;;;;;;;11.36;100.00;97268.47;4946256;28;20074;-66
2022/06/11 01:31:19;;;;;;;6.47;3.47;;;;;;;11.35;100.00;97273.19;4991453;28;20140;-66
2022/06/11 01:34:07;;;;;;;7.50;3.63;;;;;;;11.38;100.00;97271.66;4993426;28;20058;-65
2022/06/11 01:36:39;;;;;;;4.47;3.00;;;;;;;11.37;100.00;97273.63;4990389;28;20053;-64
2022/06/11 01:39:13;;;;;;;7.55;3.92;;;;;;;11.31;100.00;97275.06;4988862;28;20052;-67
2022/06/11 01:41:59;;;;;;;9.52;4.10;;;;;;;11.27;100.00;97277.72;4993205;28;20097;-64
2022/06/11 01:44:33;;;;;;;5.10;3.13;;;;;;;11.27;100.00;97274.97;4996788;28;20085;-65
2022/06/11 01:47:00;;;;;;;8.23;3.72;;;;;;;11.29;100.00;97278.16;5002250;28;20125;-65
2022/06/11 01:49:25;;;;;;;8.32;3.80;;;;;;;11.25;100.00;97276.47;4996985;28;20565;-64
2022/06/11 01:52:02;;;;;;;7.80;4.22;;;;;;;11.24;100.00;97278.44;4986123;28;20050;-65
2022/06/11 01:54:46;;;;;;;6.22;3.80;;;;;;;11.25;100.00;97279.22;4984326;28;20073;-66
2022/06/11 01:57:14;;;;;;;5.63;3.50;;;;;;;11.24;100.00;97281.16;4979783;28;20053;-63
2022/06/11 02:00:04;;;;;;;7.22;3.40;;;;;;;11.24;100.00;97285.88;4992057;28;20034;-64
2022/06/11 02:02:54;;;;;;;7.13;4.05;;;;;;;11.27;100.00;97280.47;5002258;28;20143;-62
2022/06/11 02:05:27;;;;;;;;;;;;;;;11.29;100.00;97288.34;4968474;28;20070;-68
2022/06/11 02:08:22;;;;;;;4.65;3.17;;;;;;;11.14;100.00;97289.94;4982372;28;19920;-66
2022/06/11 02:10:56;;;;;;;10.75;3.45;;;;;;;11.12;100.00;97285.97;4955129;28;20384;-65
2022/06/11 02:13:25;;;;;;;5.28;3.55;;;;;;;11.13;100.00;97276.56;4977271;28;20038;-63
2022/06/11 02:16:06;;;;;;;5.30;3.30;;;;;;;11.08;100.00;97288.63;4981817;28;20076;-65
2022/06/11 02:18:33;;;;;;;5.32;3.40;;;;;;;10.98;100.00;97278.97;4986293;28;20042;-65
2022/06/11 02:21:05;;;;;;;5.78;3.28;;;;;;;11.01;100.00;97277.50;4988017;28;20081;-62
2022/06/11 02:23:41;;;;;;;7.90;3.55;;;;;;;11.02;100.00;97282.63;5000612;28;20042;-64
2022/06/11 02:26:22;;;;;;;5.20;3.33;;;;;;;11.12;100.00;97281.28;4993245;28;20045;-62
2022/06/11 02:28:49;;;;;;;8.20;3.75;;;;;;;11.13;100.00;97287.53;4983439;28;20070;-64
2022/06/11 02:31:23;;;;;;;4.93;3.70;;;;;;;11.04;100.00;97287.75;4977894;28;20172;-61
2022/06/11 02:33:49;;;;;;;7.38;3.05;;;;;;;11.00;100.00;97297.81;4981570;28;20047;-64
2022/06/11 02:36:20;;;;;;;7.22;3.47;;;;;;;10.73;100.00;97302.25;4976960;28;20101;-64
2022/06/11 02:38:47;;;;;;;9.35;3.70;;;;;;;10.60;100.00;97298.78;4983602;28;20042;-64
2022/06/11 02:41:17;;;;;;;4.82;3.45;;;;;;;10.43;100.00;97299.91;4977127;28;20042;-65
2022/06/11 02:43:43;;;;;;;;;;;;;;;10.49;100.00;97296.56;4982204;28;20093;-66
2022/06/11 02:48:55;;;;;;;5.38;3.80;;;;;;;10.38;100.00;97295.47;4982191;28;20046;-65
2022/06/11 02:51:22;;;;;;;6.93;3.80;;;;;;;10.42;100.00;97292.84;4977886;28;20038;-63
2022/06/11 02:53:49;;;;;;;5.18;3.67;;;;;;;10.44;100.00;97296.03;4983290;28;20125;-65
2022/06/11 02:56:15;;;;;;;8.18;3.80;;;;;;;10.45;100.00;97295.66;4977086;28;20038;-65
2022/06/11 02:58:42;;;;;;;9.32;3.88;;;;;;;10.48;100.00;97300.44;4984253;28;20112;-63
2022/06/11 03:01:08;;;;;;;6.60;3.70;;;;;;;10.46;100.00;97300.00;4979011;28;20039;-64
2022/06/11 03:03:35;;;;;;;5.30;3.53;;;;;;;10.46;100.00;97294.53;4983908;28;20050;-69
2022/06/11 03:06:01;;;;;;;6.05;3.28;;;;;;;10.42;100.00;97299.09;4982702;28;20097;-63
2022/06/11 03:08:27;;;;;;;5.18;3.10;;;;;;;10.31;100.00;97293.34;4976559;28;20042;-62
2022/06/11 03:10:54;;;;;;;6.53;3.40;;;;;;;10.02;100.00;97302.69;4989766;28;20042;-65
2022/06/11 03:13:21;;;;;;;9.75;3.40;;;;;;;9.95;100.00;97300.53;4993979;28;20042;-66
2022/06/11 03:15:47;;;;;;;7.72;3.75;;;;;;;10.04;100.00;97305.88;4984842;28;20042;-64
2022/06/11 03:18:13;;;;;;;7.40;4.13;;;;;;;10.13;100.00;97305.72;4976460;28;20129;-65
2022/06/11 03:20:39;;;;;;;4.88;3.67;;;;;;;10.22;100.00;97313.78;4990006;28;20111;-67
2022/06/11 03:23:06;;;;;;;5.53;3.13;;;;;;;10.24;100.00;97306.81;4998012;28;20069;-67
2022/06/11 03:25:31;;;;;;;6.55;3.70;;;;;;;10.22;100.00;97316.53;4990710;28;20046;-65
2022/06/11 03:27:57;;;;;;;6.15;3.35;;;;;;;10.23;100.00;97315.41;4982628;28;20045;-66
2022/06/11 03:30:22;;;;;;;11.85;4.20;;;;;;;10.11;100.00;97319.75;4977070;28;20397;-64
2022/06/11 03:32:48;;;;;;;9.65;3.10;;;;;;;9.84;100.00;97317.81;4978953;28;20038;-65
2022/06/11 03:35:14;;;;;;;6.20;3.42;;;;;;;9.55;100.00;97317.75;4976984;28;20065;-65
2022/06/11 03:37:41;;;;;;;4.75;3.30;;;;;;;9.63;100.00;97321.50;4981763;28;20046;-66
2022/06/11 03:40:07;;;;;;;7.10;3.58;;;;;;;9.58;100.00;97327.22;4977469;28;20046;-65
2022/06/11 03:42:33;;;;;;;13.18;3.85;;;;;;;9.62;100.00;97330.06;4981907;28;20499;-65
2022/06/11 03:44:59;;;;;;;5.13;3.97;;;;;;;9.69;100.00;97335.75;4995280;28;20053;-65
2022/06/11 03:47:24;;;;;;;6.13;3.80;;;;;;;9.74;100.00;97338.22;4975537;28;20497;-65
2022/06/11 03:49:50;;;;;;;7.20;3.85;;;;;;;10.01;100.00;97333.13;4980953;28;20065;-64
2022/06/11 03:52:16;;;;;;;4.93;3.80;;;;;;;10.20;100.00;97336.03;4978983;28;20165;-66
2022/06/11 03:54:42;;;;;;;5.47;4.10;;;;;;;10.33;100.00;97337.63;4986939;28;20117;-63
2022/06/11 03:57:07;;;;;;;6.65;3.70;;;;;;;10.46;100.00;97351.22;4976546;28;20043;-65
2022/06/11 03:59:33;;;;;;;8.10;3.80;;;;;;;10.66;100.00;97341.19;4979010;28;20109;-66
2022/06/11 04:01:59;;;;;;;5.03;3.40;;;;;;;10.77;100.00;97345.03;4981814;28;20039;-65
2022/06/11 04:04:25;;;;;;;5.25;3.40;;;;;;;10.88;100.00;97353.53;4977116;28;20947;-66
2022/06/11 04:06:58;;;;;;;6.07;3.85;;;;;;;11.08;100.00;97346.97;4981360;28;20423;-64
2022/06/11 04:09:32;;;;;;;6.55;3.53;;;;;;;11.27;100.00;97361.91;4976223;28;20526;-65
2022/06/11 04:11:58;;;;;;;6.03;3.13;;;;;;;11.50;100.00;97351.09;4981623;28;20038;-62
2022/06/11 04:14:24;;;;;;;5.28;2.90;;;;;;;11.63;100.00;97358.06;4975364;28;20536;-64
2022/06/11 04:17:01;;;;;;;8.68;3.58;;;;;;;11.77;100.00;97354.84;4980072;28;20046;-65
2022/06/11 04:19:30;;;;;;;4.15;3.20;;;;;;;11.94;100.00;97344.63;4974976;28;20050;-65
2022/06/11 04:21:57;;;;;;;5.00;3.47;;;;;;;12.16;100.00;97357.66;4998815;28;20042;-64
2022/06/11 04:24:23;;;;;;;5.78;3.05;;;;;;;12.28;100.00;97355.91;4996578;28;20519;-65
2022/06/11 04:26:51;;;;;;;10.65;3.17;;;;;;;12.03;100.00;97348.78;4996657;28;20038;-64
2022/06/11 04:29:21;;;;;;;4.85;3.30;;;;;;;12.07;100.00;97348.84;4978660;28;20419;-64
2022/06/11 04:31:49;;;;;;;6.82;3.30;;;;;;;12.18;100.00;97358.09;4982692;28;20129;-65
2022/06/11 04:34:15;;;;;;;6.82;3.72;;;;;;;12.55;100.00;97354.91;4975853;28;20034;-65
2022/06/11 04:36:43;;;;;;;4.60;3.20;;;;;;;12.94;100.00;97354.81;4980943;28;20138;-66
2022/06/11 04:39:11;;;;;;;5.30;3.20;;;;;;;13.29;100.00;97351.09;4974932;28;20070;-66
2022/06/11 04:41:36;;;;;;;4.88;2.78;;;;;;;13.61;100.00;97352.75;4980890;28;20039;-65
2022/06/11 04:44:02;;;;;;;5.70;3.50;;;;;;;13.75;100.00;97347.47;4983512;28;20409;-62
2022/06/11 04:46:28;;;;;;;6.20;3.38;;;;;;;14.00;100.00;97350.56;4989282;28;20129;-65
2022/06/11 04:48:54;;;;;;;4.18;2.80;;;;;;;15.46;100.00;97352.50;5001962;28;20391;-68
2022/06/11 04:51:20;;;;;;;4.32;2.58;;;;;;;17.38;89.70;97350.09;4995241;28;20049;-66
2022/06/11 04:53:46;;;;;;;6.93;2.10;;;;;;;19.20;78.15;97356.22;4988182;28;20052;-65
2022/06/11 04:56:19;;;;;;;4.35;2.40;;;;;;;20.99;67.95;97358.28;4976934;28;20129;-66
2022/06/11 04:58:46;;;;;;;5.65;2.58;;;;;;;22.58;57.22;97365.53;4983153;28;20522;-67
2022/06/11 05:01:11;;;;;;;3.88;2.10;;;;;;;23.58;54.24;97365.25;4973849;28;20038;-67
2022/06/11 05:03:37;;;;;;;7.32;1.70;;;;;;;24.96;49.68;97363.94;4980756;28;20038;-65
2022/06/11 05:06:04;;;;;;;5.13;1.75;;;;;;;25.72;46.13;97370.75;4978573;28;20047;-68
2022/06/11 05:08:30;;;;;;;6.75;1.65;;;;;;;26.50;43.66;97365.66;4980238;28;20137;-66
2022/06/11 05:10:55;;;;;;;4.90;1.80;;;;;;;25.84;43.15;97374.78;4981491;28;20448;-64
2022/06/11 05:13:21;;;;;;;3.72;1.52;;;;;;;26.49;43.07;97378.94;4975581;28;20049;-65
2022/06/11 05:15:50;;;;;;;6.05;1.65;;;;;;;25.28;43.94;97375.41;4984082;28;20140;-65
2022/06/11 05:18:16;;;;;;;4.88;2.00;;;;;;;26.11;44.38;97377.06;4977527;28;20042;-66
2022/06/11 05:20:43;;;;;;;2.38;1.17;;;;;;;26.66;43.17;97375.94;4988509;28;20046;-64
2022/06/11 05:23:09;;;;;;;6.43;2.08;;;;;;;26.30;42.73;97377.22;4991015;28;20042;-64
2022/06/11 05:25:38;;;;;;;5.07;1.65;;;;;;;27.60;40.68;97387.97;4974034;28;20050;-64
2022/06/11 05:28:06;;;;;;;2.85;1.33;;;;;;;28.59;37.99;97383.41;4965337;28;20406;-67
2022/06/11 05:30:33;;;;;;;3.65;1.65;;;;;;;28.07;38.51;97379.63;4985828;28;20042;-64
2022/06/11 05:33:00;;;;;;;5.65;1.85;;;;;;;28.18;38.91;97383.56;4985498;28;20039;-64
2022/06/11 05:35:29;;;;;;;3.45;1.65;;;;;;;27.83;39.87;97386.59;4979565;28;20487;-65
2022/06/11 05:37:59;;;;;;;6.13;1.77;;;;;;;26.05;43.49;97392.13;4984379;28;20046;-66
2022/06/11 05:40:29;;;;;;;12.13;1.92;;;;;;;24.21;50.15;97386.44;4980275;28;20215;-65
2022/06/11 05:42:54;;;;;;;2.65;1.75;;;;;;;21.42;60.23;97390.28;4985394;28;20044;-62
2022/06/11 05:45:25;;;;;;;5.35;2.05;;;;;;;22.10;58.42;97389.16;4987219;28;20126;-64
2022/06/11 05:47:53;;;;;;;3.60;2.05;;;;;;;20.59;64.76;97383.84;5000257;28;20034;-64
2022/06/11 05:50:23;;;;;;;7.65;2.03;;;;;;;22.61;59.96;97386.97;4999214;28;20554;-63
2022/06/11 05:52:49;;;;;;;4.70;1.90;;;;;;;20.62;64.44;97394.19;4988352;28;20082;-66
2022/06/11 05:55:21;;;;;;;3.92;2.13;;;;;;;20.25;69.70;97383.84;4979830;28;20128;-64
2022/06/11 05:57:50;;;;;;;5.00;1.98;;;;;;;20.99;62.64;97388.94;4996406;28;20368;-64
2022/06/11 06:00:18;;;;;;;4.60;2.33;;;;;;;23.50;53.38;97394.63;4990494;28;20384;-64
2022/06/11 06:02:44;;;;;;;5.15;2.70;;;;;;;24.92;50.58;97387.66;4994350;28;20039;-65
2022/06/11 06:05:13;;;;;;;2.72;1.65;;;;;;;24.48;50.23;97402.13;4979014;28;20090;-64
2022/06/11 06:07:38;;;;;;;3.78;2.13;;;;;;;21.68;59.79;97394.25;4985274;28;20120;-64
2022/06/11 06:10:04;;;;;;;6.20;2.17;;;;;;;22.03;58.20;97390.06;4981929;28;20046;-68
2022/06/11 06:12:32;;;;;;;4.30;2.08;;;;;;;21.60;62.85;97388.03;4995244;28;20114;-65
2022/06/11 06:15:07;;;;;;;3.17;2.08;;;;;;;25.11;50.91;97392.28;4992457;28;20058;-64
2022/06/11 06:17:32;;;;;;;3.95;2.45;;;;;;;22.42;58.02;97398.94;4984621;28;20057;-67
2022/06/11 06:19:58;;;;;;;4.10;1.88;;;;;;;24.50;52.34;97396.06;4994502;28;20037;-63
2022/06/11 06:22:24;;;;;;;3.33;2.03;;;;;;;23.97;51.65;97396.31;4999343;28;20037;-64
2022/06/11 06:24:49;;;;;;;3.75;2.40;;;;;;;23.95;52.58;97393.13;5004565;28;20034;-65
2022/06/11 06:27:14;;;;;;;3.78;1.90;;;;;;;26.50;45.67;97388.13;4985274;28;20042;-66
2022/06/11 06:29:40;;;;;;;7.45;2.00;;;;;;;25.15;48.17;97397.78;4982105;28;20070;-64
2022/06/11 06:32:06;;;;;;;4.97;2.10;;;;;;;26.81;44.73;97399.47;4979802;28;20583;-66
2022/06/11 06:34:31;;;;;;;3.13;1.60;;;;;;;28.40;41.43;97405.16;4984284;28;20131;-64
2022/06/11 06:36:57;;;;;;;6.55;2.60;;;;;;;23.54;53.48;97405.75;4985330;28;20125;-63
2022/06/11 06:39:22;;;;;;;7.13;2.85;;;;;;;20.86;67.12;97402.63;4978915;28;20547;-64
2022/06/11 06:41:49;;;;;;;4.85;2.30;;;;;;;24.75;52.74;97395.38;4981311;28;20085;-65
2022/06/11 06:44:15;;;;;;;4.18;2.40;;;;;;;25.69;50.30;97396.13;4977075;28;20060;-64
2022/06/11 06:46:40;;;;;;;3.80;2.20;;;;;;;22.99;55.60;97403.34;4978882;28;20050;-65
2022/06/11 06:49:05;;;;;;;5.55;2.90;;;;;;;21.54;60.93;97400.88;4970622;28;20062;-65
2022/06/11 06:51:34;;;;;;;4.15;2.47;;;;;;;23.70;56.49;97397.34;4987422;28;20038;-65
2022/06/11 06:54:00;;;;;;;4.27;2.30;;;;;;;25.30;50.40;97404.56;4986187;28;20502;-64
2022/06/11 06:56:29;;;;;;;3.90;2.28;;;;;;;27.41;45.30;97398.38;4977152;28;20057;-64
2022/06/11 06:58:57;;;;;;;5.57;2.72;;;;;;;27.05;45.21;97401.78;4983989;28;20512;-65
2022/06/11 07:01:23;;;;;;;4.18;2.53;;;;;;;25.13;50.94;97401.03;4977026;28;20062;-64
2022/06/11 07:03:49;;;;;;;3.65;2.72;;;;;;;20.96;64.66;97396.13;4983941;28;20121;-64
2022/06/11 07:06:14;;;;;;;3.83;2.70;;;;;;;22.60;61.93;97401.38;4977740;28;20472;-64
2022/06/11 07:08:39;;;;;;;4.57;2.97;;;;;;;23.07;56.90;97393.63;4981439;28;20057;-65
2022/06/11 07:11:05;;;;;;;6.35;3.10;;;;;;;23.73;57.30;97404.84;4976439;28;20053;-64
2022/06/11 07:13:31;;;;;;;7.88;2.65;;;;;;;26.87;47.50;97397.63;4980544;28;20183;-64
2022/06/11 07:15:57;;;;;;;4.70;2.53;;;;;;;26.12;48.25;97406.69;4980313;28;20074;-67
2022/06/11 07:18:32;;;;;;;4.22;2.28;;;;;;;28.36;42.69;97399.66;4978726;28;20219;-65
2022/06/11 07:21:01;;;;;;;6.95;2.33;;;;;;;29.04;41.17;97406.31;4996214;28;20503;-66
2022/06/11 07:23:35;;;;;;;6.78;2.38;;;;;;;29.04;40.36;97403.50;4984736;28;20046;-66
2022/06/11 07:26:04;;;;;;;4.00;2.03;;;;;;;30.14;37.91;97407.09;4982535;28;20046;-65
2022/06/11 07:28:36;;;;;;;4.15;2.50;;;;;;;26.84;45.30;97398.53;4983729;28;20052;-65
2022/06/11 07:31:03;;;;;;;3.90;2.28;;;;;;;28.08;42.64;97404.50;4982682;28;20038;-68
2022/06/11 07:33:28;;;;;;;8.85;2.00;;;;;;;30.07;37.56;97396.94;4979731;28;20061;-65
2022/06/11 07:35:54;;;;;;;6.93;2.20;;;;;;;30.99;35.58;97392.56;4980862;28;20050;-63
2022/06/11 07:38:22;;;;;;;5.72;2.55;;;;;;;29.83;37.47;97397.72;4976183;28;20057;-64
2022/06/11 07:40:48;;;;;;;5.57;2.25;;;;;;;30.68;36.55;97397.41;4983274;28;20046;-64
2022/06/11 07:43:14;;;;;;;8.35;2.75;;;;;;;22.97;53.40;97400.19;4977843;28;20042;-64
2022/06/11 07:45:41;;;;;;;7.35;2.92;;;;;;;23.98;52.46;97404.22;4980004;28;20064;-63
2022/06/11 07:48:08;;;;;;;8.13;4.72;;;;;;;22.39;57.72;97399.81;4978164;28;20124;-63
2022/06/11 07:50:37;;;;;;;4.20;2.25;;;;;;;26.13;47.15;97399.09;4983504;28;20054;-64
2022/06/11 07:53:04;;;;;;;4.30;2.07;;;;;;;27.90;42.77;97401.63;4981338;28;20042;-66
2022/06/11 07:55:32;;;;;;;4.70;2.50;;;;;;;23.77;51.58;97399.16;4982709;28;20069;-64
2022/06/11 07:57:58;;;;;;;5.20;2.30;;;;;;;24.90;49.87;97398.53;4983585;28;20042;-63
2022/06/11 08:00:36;;;;;;;3.10;1.63;;;;;;;26.59;46.34;97396.63;4978102;28;20078;-64
2022/06/11 08:03:03;;;;;;;6.35;2.60;;;;;;;26.48;45.77;97399.81;4978172;28;20070;-66
2022/06/11 08:05:29;;;;;;;6.63;2.40;;;;;;;26.45;45.42;97394.31;4979670;28;20038;-65
2022/06/11 08:07:54;;;;;;;6.18;2.22;;;;;;;27.73;43.56;97398.31;4983134;28;20415;-64
2022/06/11 08:10:23;;;;;;;4.05;2.40;;;;;;;28.32;41.86;97389.81;4977268;28;20042;-65
2022/06/11 08:12:48;;;;;;;5.28;2.35;;;;;;;27.37;44.31;97397.75;4982070;28;20038;-65
2022/06/11 08:15:14;;;;;;;4.30;2.00;;;;;;;27.77;43.97;97391.28;4976746;28;20523;-65
2022/06/11 08:17:42;;;;;;;7.13;3.47;;;;;;;26.89;47.27;97391.53;4980117;28;20046;-64
2022/06/11 08:20:12;;;;;;;9.38;3.28;;;;;;;25.50;50.83;97400.75;4986838;28;20045;-65
2022/06/11 08:22:37;;;;;;;;;;;;;;;25.45;51.73;97390.09;4994180;28;20045;-64
2022/06/11 08:25:04;;;;;;;5.40;3.10;;;;;;;25.13;53.82;97391.84;5000065;28;19913;-62
2022/06/11 08:27:29;;;;;;;6.22;3.50;;;;;;;24.58;55.76;97395.47;4981173;28;20110;-63
2022/06/11 08:29:54;;;;;;;8.30;3.38;;;;;;;24.51;56.94;97403.25;4980424;28;20054;-64
2022/06/11 08:32:20;;;;;;;5.20;3.45;;;;;;;24.19;57.46;97396.53;4977961;28;20046;-64
2022/06/11 08:34:46;;;;;;;6.65;3.30;;;;;;;23.07;59.87;97402.00;4981482;28;20479;-64
2022/06/11 08:37:13;;;;;;;20.52;15.05;;;;;;;23.95;58.64;97401.53;4974162;28;20038;-64
2022/06/11 08:39:39;;;;;;;7.43;3.55;;;;;;;24.49;57.17;97400.09;4982676;28;20043;-64
2022/06/11 08:42:07;;;;;;;4.85;3.20;;;;;;;24.55;57.67;97396.34;4976429;28;20488;-62
2022/06/11 08:44:36;;;;;;;6.90;4.25;;;;;;;23.97;58.39;97397.09;4979776;28;20488;-64
2022/06/11 08:47:06;;;;;;;5.75;3.60;;;;;;;24.22;57.79;97401.25;4979746;28;20136;-64
2022/06/11 08:49:43;;;;;;;7.53;3.80;;;;;;;24.37;57.03;97396.81;4980155;28;20411;-65
2022/06/11 08:52:13;;;;;;;6.20;3.35;;;;;;;24.43;57.29;97392.25;4976664;28;20038;-65
2022/06/11 08:54:42;;;;;;;9.80;3.72;;;;;;;24.24;57.65;97388.38;4992520;28;20049;-65
2022/06/11 08:57:26;;;;;;;7.65;3.33;;;;;;;23.27;60.58;97387.19;4994676;28;20131;-65
2022/06/11 09:00:03;;;;;;;9.38;3.53;;;;;;;24.37;58.25;97387.63;4964559;28;20043;-64
2022/06/11 09:02:57;;;;;;;7.78;3.53;;;;;;;24.27;57.66;97383.88;4964768;28;20043;-64
2022/06/11 09:05:25;;;;;;;5.05;3.30;;;;;;;24.53;58.50;97381.22;4962213;28;20050;-63
2022/06/11 09:08:05;;;;;;;7.10;3.45;;;;;;;24.96;55.83;97377.16;4967573;28;20399;-64
2022/06/11 09:10:57;;;;;;;6.10;3.20;;;;;;;24.85;56.21;97369.09;4966706;28;20047;-65
2022/06/11 09:14:00;;;;;;;7.05;3.40;;;;;;;24.96;55.74;97375.13;4945220;28;20141;-65
2022/06/11 09:16:29;;;;;;;4.80;3.15;;;;;;;25.13;55.50;97366.63;4979702;28;20053;-65
2022/06/11 09:19:03;;;;;;;6.40;3.87;;;;;;;24.92;55.91;97368.88;4986250;28;20039;-65
2022/06/11 09:21:43;;;;;;;5.70;3.17;;;;;;;24.33;58.00;97368.13;5004245;28;20042;-65
2022/06/11 09:24:27;;;;;;;4.18;3.25;;;;;;;24.68;57.21;97376.00;4999690;28;20065;-64
2022/06/11 09:27:09;;;;;;;7.40;4.00;;;;;;;23.83;62.04;97378.66;4994081;28;20129;-65
2022/06/11 09:29:50;;;;;;;7.80;3.95;;;;;;;24.13;59.93;97378.69;4982961;28;20121;-65
2022/06/11 09:32:24;;;;;;;8.32;4.05;;;;;;;24.22;60.13;97376.84;4983306;28;20048;-65
2022/06/11 09:35:01;;;;;;;7.25;3.58;;;;;;;24.49;58.95;97380.50;4986986;28;20115;-65
2022/06/11 09:37:40;;;;;;;5.78;3.75;;;;;;;24.41;59.15;97372.28;4978311;28;20069;-64
2022/06/11 09:40:34;;;;;;;10.63;3.45;;;;;;;24.72;58.62;97379.47;4980240;28;20483;-63
2022/06/11 09:43:14;;;;;;;7.43;3.78;;;;;;;25.09;57.44;97374.38;4985787;28;20444;-63
2022/06/11 09:45:48;;;;;;;;;;;;;;;24.91;56.14;97378.50;4984039;28;20962;-63
2022/06/11 09:48:28;;;;;;;7.28;3.65;;;;;;;24.06;59.25;97379.66;4986159;28;19913;-65
2022/06/11 09:51:02;;;;;;;6.53;3.13;;;;;;;24.40;58.08;97379.13;5001688;28;20521;-69
2022/06/11 09:53:45;;;;;;;6.80;3.70;;;;;;;24.34;59.75;97377.31;5001262;28;20525;-64
2022/06/11 09:56:36;;;;;;;6.30;3.67;;;;;;;24.57;59.05;97379.09;4997638;28;20205;-64
2022/06/11 09:59:20;;;;;;;5.18;3.13;;;;;;;25.17;57.08;97384.09;5004112;28;20160;-65
2022/06/11 10:01:57;;;;;;;5.68;3.05;;;;;;;25.02;57.56;97378.16;5002449;28;20053;-64
2022/06/11 10:04:29;;;;;;;10.38;6.18;;;;;;;24.97;56.91;97367.50;4979284;28;20333;-64
2022/06/11 10:06:57;;;;;;;7.63;3.10;;;;;;;25.09;55.66;97371.56;4984868;28;20049;-65
2022/06/11 10:09:30;;;;;;;5.15;2.40;;;;;;;25.37;53.01;97370.69;4980088;28;20062;-64
2022/06/11 10:12:12;;;;;;;5.65;3.35;;;;;;;24.85;54.71;97374.69;4983821;28;20072;-64
2022/06/11 10:15:03;;;;;;;6.32;3.25;;;;;;;24.99;55.89;97374.25;4982377;28;20038;-64
2022/06/11 10:17:34;;;;;;;5.65;2.72;;;;;;;25.31;53.71;97366.88;4980915;28;20049;-64
2022/06/11 10:20:21;;;;;;;3.67;2.53;;;;;;;25.27;53.61;97368.22;4994718;28;20109;-64
2022/06/11 10:22:56;;;;;;;4.35;2.33;;;;;;;24.52;54.41;97369.19;5003782;28;20042;-65
2022/06/11 10:25:44;;;;;;;4.93;2.67;;;;;;;24.68;51.97;97361.97;4981305;28;20117;-64
2022/06/11 10:28:19;;;;;;;5.90;3.47;;;;;;;25.17;54.08;97356.06;4975871;28;20042;-63
2022/06/11 10:30:49;;;;;;;4.30;2.38;;;;;;;25.44;51.89;97352.06;4982129;28;20042;-64
2022/06/11 10:33:18;;;;;;;;;;;;;;;25.77;49.47;97355.38;4986960;28;20081;-64
2022/06/11 10:35:47;;;;;;;3.33;2.33;;;;;;;26.08;50.32;97352.72;4995863;28;19914;-64
2022/06/11 10:38:30;;;;;;;4.57;2.28;;;;;;;26.11;50.78;97354.63;4989760;28;20082;-64
2022/06/11 10:40:58;;;;;;;3.10;2.03;;;;;;;25.76;47.93;97353.78;4986536;28;20354;-64
2022/06/11 10:43:36;;;;;;;7.13;3.95;;;;;;;25.79;48.65;97352.91;4979572;28;20817;-64
2022/06/11 10:46:01;;;;;;;3.42;1.90;;;;;;;25.14;49.34;97357.00;4985574;28;20050;-64
2022/06/11 10:48:33;;;;;;;3.95;2.65;;;;;;;25.38;53.48;97349.81;4987613;28;20519;-64
2022/06/11 10:51:04;;;;;;;7.20;2.42;;;;;;;25.07;51.07;97360.81;4985663;28;20050;-64
2022/06/11 10:53:33;;;;;;;4.75;1.80;;;;;;;25.46;45.71;97349.59;4983801;28;20056;-65
2022/06/11 10:56:05;;;;;;;3.47;1.90;;;;;;;25.22;46.26;97355.53;4983141;28;20074;-63
2022/06/11 10:58:40;;;;;;;3.85;1.70;;;;;;;25.86;46.65;97346.25;4981469;28;20046;-64
2022/06/11 11:01:12;;;;;;;5.50;1.98;;;;;;;25.80;49.34;97348.06;4977111;28;20062;-62
2022/06/11 11:03:58;;;;;;;4.50;1.85;;;;;;;25.63;46.80;97353.81;4982478;28;20453;-64
2022/06/11 11:06:30;;;;;;;3.25;1.58;;;;;;;25.51;46.05;97340.59;4977671;28;20046;-63
2022/06/11 11:09:04;;;;;;;4.55;3.20;;;;;;;25.37;47.61;97339.84;4983763;28;20515;-64
2022/06/11 11:11:39;;;;;;;2.50;1.80;;;;;;;25.29;44.68;97340.53;4983408;28;20046;-65
2022/06/11 11:14:16;;;;;;;1.80;1.20;;;;;;;25.52;44.81;97337.34;4977196;28;20065;-65
2022/06/11 11:16:47;;;;;;;2.67;1.63;;;;;;;25.55;45.48;97333.66;4987677;28;20042;-65
2022/06/11 11:19:33;;;;;;;2.20;1.42;;;;;;;25.86;45.61;97335.03;4978431;28;20117;-65
2022/06/11 11:22:10;;;;;;;2.95;1.70;;;;;;;25.14;48.11;97334.56;4981350;28;20039;-64
2022/06/11 11:24:44;;;;;;;4.47;1.95;;;;;;;25.48;45.43;97338.69;4981940;28;20050;-64
2022/06/11 11:27:21;;;;;;;3.08;1.52;;;;;;;25.71;45.18;97329.91;4975609;28;20554;-64
2022/06/11 11:29:51;;;;;;;3.80;1.30;;;;;;;25.89;44.18;97326.50;4984012;28;20399;-64
2022/06/11 11:32:35;;;;;;;4.45;1.90;;;;;;;26.17;45.26;97334.38;4978020;28;20043;-64
2022/06/11 11:35:27;;;;;;;2.67;1.73;;;;;;;26.09;46.82;97331.03;4983627;28;20081;-64
2022/06/11 11:38:11;;;;;;;4.55;1.63;;;;;;;25.88;46.52;97324.91;4983122;28;20043;-64
2022/06/11 11:41:01;;;;;;;2.50;1.60;;;;;;;26.07;43.94;97325.09;4979857;28;20034;-64
2022/06/11 11:43:36;;;;;;;3.13;1.38;;;;;;;26.18;42.56;97322.72;4975481;28;20112;-64
2022/06/11 11:46:12;;;;;;;5.10;1.52;;;;;;;25.70;44.24;97328.34;4979156;28;20069;-63
2022/06/11 11:48:48;;;;;;;2.88;1.30;;;;;;;25.85;43.46;97327.84;4990329;28;20101;-64
2022/06/11 11:51:36;;;;;;;2.63;1.17;;;;;;;26.05;39.91;97317.13;4997316;28;20050;-63
2022/06/11 11:54:14;;;;;;;7.43;1.27;;;;;;;25.98;40.15;97327.81;5002108;28;20042;-63